Time;durP1;ratioP1;P1;durP2;ratioP2;P2;SDS_P1;SDS_P2;PMS_P1;PMS_P2;Temp;Humidity;BMP_temperature;BMP_pressure;BME280_temperature;BME280_humidity;BME280_pressure;Samples;Min_cycle;Max_cycle;Signal;HPM_P1;HPM_P2
2020/12/09 00:02:05;;;;;;;19.48;9.33;;;;;;;-5.40;76.83;101136.73;1815268;79;21809;-79
2020/12/09 00:05:13;;;;;;;17.60;9.53;;;;;;;-5.43;77.01;101142.16;1814167;79;21199;-79
2020/12/09 00:08:18;;;;;;;18.25;9.28;;;;;;;-5.42;77.14;101151.44;1815228;79;21291;-79
2020/12/09 00:11:24;;;;;;;18.17;10.48;;;;;;;-5.42;77.26;101140.77;1815095;79;21291;-79
2020/12/09 00:14:30;;;;;;;21.25;8.58;;;;;;;-5.43;77.38;101148.37;1813741;79;21161;-80
2020/12/09 00:17:36;;;;;;;24.40;10.23;;;;;;;-5.45;77.37;101139.56;1814279;79;21333;-80
2020/12/09 00:20:41;;;;;;;16.27;8.73;;;;;;;-5.44;77.54;101149.30;1813850;79;21215;-79
2020/12/09 00:23:48;;;;;;;18.42;8.05;;;;;;;-5.42;77.66;101138.10;1815339;79;21164;-80
2020/12/09 00:26:56;;;;;;;20.25;10.45;;;;;;;-5.38;77.64;101150.00;1814990;79;21342;-79
2020/12/09 00:30:02;;;;;;;19.40;8.95;;;;;;;-5.41;77.69;101147.87;1815312;79;21160;-79
2020/12/09 00:33:08;;;;;;;28.65;13.20;;;;;;;-5.41;77.86;101138.53;1815267;79;21767;-80
2020/12/09 00:36:15;;;;;;;26.12;13.98;;;;;;;-5.44;77.96;101133.30;1814841;79;21921;-79
2020/12/09 00:39:21;;;;;;;24.40;10.95;;;;;;;-5.44;78.12;101135.97;1815290;79;21180;-80
2020/12/09 00:42:27;;;;;;;25.92;18.80;;;;;;;-5.44;78.15;101135.09;1809596;77;21299;-80
2020/12/09 00:45:33;;;;;;;23.38;11.88;;;;;;;-5.42;78.22;101133.23;1805057;79;21763;-80
2020/12/09 00:48:40;;;;;;;26.30;11.93;;;;;;;-5.40;78.21;101138.07;1805264;79;21316;-79
2020/12/09 00:51:47;;;;;;;26.23;10.90;;;;;;;-5.37;78.15;101132.60;1782068;79;21173;-79
2020/12/09 00:54:55;;;;;;;19.48;12.30;;;;;;;-5.34;78.12;101141.84;1805219;79;21176;-79
2020/12/09 00:58:01;;;;;;;21.15;11.08;;;;;;;-5.34;78.14;101147.17;1805898;79;21822;-80
2020/12/09 01:01:08;;;;;;;30.23;18.98;;;;;;;-5.35;78.34;101131.23;1806516;79;21188;-80
2020/12/09 01:04:16;;;;;;;18.27;10.08;;;;;;;-5.36;78.48;101141.03;1806767;79;21236;-80
2020/12/09 01:07:21;;;;;;;22.27;9.93;;;;;;;-5.36;78.51;101139.70;1806444;79;21319;-80
2020/12/09 01:10:27;;;;;;;25.60;13.03;;;;;;;-5.38;78.56;101135.34;1806574;79;21330;-80
2020/12/09 01:13:34;;;;;;;26.33;12.18;;;;;;;-5.39;78.68;101141.14;1806762;79;21323;-80
2020/12/09 01:16:40;;;;;;;23.55;13.95;;;;;;;-5.37;78.88;101150.41;1806619;79;21284;-80
2020/12/09 01:19:46;;;;;;;17.57;9.78;;;;;;;-5.35;79.02;101148.57;1807732;79;21676;-80
2020/12/09 01:22:53;;;;;;;19.05;9.28;;;;;;;-5.33;79.11;101152.04;1806699;79;21196;-80
2020/12/09 01:26:00;;;;;;;19.17;9.78;;;;;;;-5.35;79.15;101156.11;1806660;79;21295;-80
2020/12/09 01:29:05;;;;;;;40.40;25.55;;;;;;;-5.37;79.18;101141.94;1804775;79;21338;-80
2020/12/09 01:32:10;;;;;;;18.42;10.78;;;;;;;-5.36;79.24;101146.38;1804693;79;21743;-80
2020/12/09 01:35:18;;;;;;;25.60;12.23;;;;;;;-5.34;79.35;101151.17;1806377;79;21189;-80
2020/12/09 01:38:24;;;;;;;23.32;11.48;;;;;;;-5.33;79.46;101144.91;1805013;79;21351;-80
2020/12/09 01:41:31;;;;;;;38.15;22.60;;;;;;;-5.29;79.62;101149.67;1806646;79;21303;-80
2020/12/09 01:44:36;;;;;;;33.50;23.27;;;;;;;-5.24;79.66;101154.38;1805573;78;21357;-80
2020/12/09 01:47:42;;;;;;;23.12;11.12;;;;;;;-5.20;79.72;101160.88;1806463;79;21316;-79
2020/12/09 01:50:49;;;;;;;24.72;14.47;;;;;;;-5.14;79.72;101161.11;1805342;79;21295;-79
2020/12/09 01:53:54;;;;;;;19.87;13.53;;;;;;;-5.07;79.84;101149.30;1806715;79;21783;-80
2020/12/09 01:57:18;;;;;;;35.20;22.50;;;;;;;-4.99;80.09;101158.34;1806837;79;21223;-79
2020/12/09 02:00:23;;;;;;;18.98;9.28;;;;;;;-4.90;80.31;101152.19;1806780;79;21295;-80
2020/12/09 02:03:29;;;;;;;22.65;14.30;;;;;;;-4.78;80.70;101164.69;1806744;79;21815;-80
2020/12/09 02:06:36;;;;;;;26.60;18.30;;;;;;;-4.69;80.82;101153.66;1806165;79;21886;-80
2020/12/09 02:09:42;;;;;;;19.07;10.82;;;;;;;-4.59;80.75;101161.72;1805078;79;21732;-80
2020/12/09 02:12:49;;;;;;;20.75;13.83;;;;;;;-4.51;80.78;101164.97;1806273;79;21783;-78
2020/12/09 02:15:54;;;;;;;19.55;11.45;;;;;;;-4.43;80.81;101158.84;1806371;79;21291;-78
2020/12/09 02:19:00;;;;;;;28.40;17.07;;;;;;;-4.38;80.84;101167.53;1805015;79;21220;-79
2020/12/09 02:22:14;;;;;;;40.00;26.05;;;;;;;-4.32;80.96;101151.76;1805753;79;21319;-79
2020/12/09 02:25:19;;;;;;;18.35;10.63;;;;;;;-4.26;81.03;101158.65;1806559;79;21731;-79
2020/12/09 02:28:24;;;;;;;23.42;13.90;;;;;;;-4.20;81.15;101164.60;1806319;79;21763;-79
2020/12/09 02:31:30;;;;;;;21.52;13.65;;;;;;;-4.12;81.15;101161.63;1806560;79;21174;-78
2020/12/09 02:34:36;;;;;;;24.30;16.45;;;;;;;-4.08;81.34;101164.59;1806661;79;21267;-79
2020/12/09 02:37:42;;;;;;;32.75;23.77;;;;;;;-4.03;81.61;101161.73;1806501;79;21201;-78
2020/12/09 02:40:48;;;;;;;25.70;12.55;;;;;;;-3.98;81.83;101169.95;1806701;79;21276;-79
2020/12/09 02:43:53;;;;;;;38.78;26.77;;;;;;;-3.91;81.87;101166.55;1806948;77;21354;-79
2020/12/09 02:46:58;;;;;;;18.48;13.65;;;;;;;-3.86;81.90;101157.87;1814959;79;21808;-79
2020/12/09 02:50:04;;;;;;;31.07;22.60;;;;;;;-3.79;81.96;101169.20;1814098;79;21259;-78
2020/12/09 02:53:10;;;;;;;44.77;34.73;;;;;;;-3.73;81.90;101161.77;1814180;79;21767;-79
2020/12/09 02:56:15;;;;;;;35.75;24.63;;;;;;;-3.68;81.81;101163.78;1815085;79;21365;-79
2020/12/09 02:59:21;;;;;;;26.57;20.12;;;;;;;-3.64;81.78;101164.53;1813631;79;21295;-79
2020/12/09 03:02:19;;;;;;;30.95;20.17;;;;;;;-3.58;81.80;101158.91;1813812;79;21314;-79
2020/12/09 03:05:11;;;;;;;27.87;23.50;;;;;;;-3.53;81.81;101167.61;1815249;79;21243;-79
2020/12/09 03:07:58;;;;;;;30.35;23.22;;;;;;;-3.49;81.76;101169.22;1814454;79;21397;-79
2020/12/09 03:10:51;;;;;;;16.25;8.60;;;;;;;-3.43;81.73;101168.11;1815358;79;21334;-79
2020/12/09 03:13:56;;;;;;;12.40;8.33;;;;;;;-3.39;81.64;101163.89;1815511;79;21283;-79
2020/12/09 03:17:01;;;;;;;23.32;14.07;;;;;;;-3.33;81.58;101163.23;1813850;79;21303;-79
2020/12/09 03:20:08;;;;;;;26.40;13.72;;;;;;;-3.28;81.48;101158.54;1814400;79;21287;-79
2020/12/09 03:23:14;;;;;;;32.50;22.00;;;;;;;-3.23;81.40;101169.91;1814670;79;21358;-79
2020/12/09 03:26:20;;;;;;;34.80;26.65;;;;;;;-3.24;81.41;101168.17;1815130;79;21287;-79
2020/12/09 03:29:26;;;;;;;30.62;22.42;;;;;;;-3.21;81.49;101178.25;1814743;79;21323;-78
2020/12/09 03:32:32;;;;;;;24.43;16.82;;;;;;;-3.17;81.44;101176.31;1815280;79;21307;-79
2020/12/09 03:35:38;;;;;;;25.82;17.75;;;;;;;-3.15;81.33;101161.95;1813769;79;21184;-79
2020/12/09 03:38:44;;;;;;;20.17;11.80;;;;;;;-3.12;81.11;101177.84;1814418;79;21314;-79
2020/12/09 03:41:49;;;;;;;22.85;14.63;;;;;;;-3.10;80.92;101164.41;1815250;79;21287;-79
2020/12/09 03:44:55;;;;;;;19.37;11.33;;;;;;;-3.10;80.84;101178.66;1814703;78;21815;-79
2020/12/09 03:48:00;;;;;;;37.10;28.80;;;;;;;-3.06;80.80;101173.16;1815259;79;21291;-79
2020/12/09 03:51:06;;;;;;;23.77;16.15;;;;;;;-3.03;80.73;101173.89;1813834;79;21326;-79
2020/12/09 03:54:13;;;;;;;17.70;11.53;;;;;;;-3.01;80.64;101175.16;1814282;79;21843;-79
2020/12/09 03:57:19;;;;;;;12.82;7.92;;;;;;;-3.01;80.49;101170.70;1815334;79;21720;-79
2020/12/09 04:00:24;;;;;;;25.95;18.67;;;;;;;-3.01;80.42;101180.06;1814688;79;21219;-79
2020/12/09 04:03:30;;;;;;;15.43;11.28;;;;;;;-2.98;80.45;101189.27;1815426;79;21808;-79
2020/12/09 04:06:37;;;;;;;23.05;13.93;;;;;;;-2.95;80.41;101178.44;1813832;79;21731;-80
2020/12/09 04:09:41;;;;;;;14.28;10.15;;;;;;;-2.93;80.41;101192.61;1814101;79;21311;-80
2020/12/09 04:12:47;;;;;;;23.02;14.95;;;;;;;-2.90;80.39;101179.09;1815132;79;21244;-80
2020/12/09 04:15:53;;;;;;;25.55;19.27;;;;;;;-2.88;80.38;101174.53;1815017;79;21354;-80
2020/12/09 04:19:00;;;;;;;21.40;16.12;;;;;;;-2.84;80.36;101177.95;1815196;79;21184;-80
2020/12/09 04:22:06;;;;;;;19.15;13.03;;;;;;;-2.82;80.29;101181.44;1815207;79;21296;-79
2020/12/09 04:25:12;;;;;;;31.12;22.98;;;;;;;-2.81;80.30;101185.85;1813943;79;21192;-79
2020/12/09 04:28:17;;;;;;;22.58;14.23;;;;;;;-2.80;80.34;101185.38;1815184;79;21165;-79
2020/12/09 04:31:23;;;;;;;23.67;17.32;;;;;;;-2.81;80.27;101194.36;1813718;79;21759;-79
2020/12/09 04:34:28;;;;;;;84.97;67.97;;;;;;;-2.83;80.23;101188.58;1815190;79;21283;-79
2020/12/09 04:37:34;;;;;;;31.15;17.92;;;;;;;-2.81;80.20;101205.94;1814256;79;21306;-79
2020/12/09 04:40:40;;;;;;;44.63;30.23;;;;;;;-2.80;80.17;101187.58;1815322;79;21303;-79
2020/12/09 04:43:46;;;;;;;17.27;10.50;;;;;;;-2.79;80.10;101183.95;1783255;80;21298;-79
2020/12/09 04:46:57;;;;;;;18.12;11.85;;;;;;;-2.78;79.74;101191.05;1788896;79;21637;-79
2020/12/09 04:50:15;;;;;;;14.25;7.17;;;;;;;-2.79;79.05;101196.48;1815275;79;21172;-79
2020/12/09 04:53:38;;;;;;;12.88;7.58;;;;;;;-2.84;78.35;101204.72;1815294;79;21120;-79
2020/12/09 04:56:46;;;;;;;22.82;11.65;;;;;;;-2.89;78.00;101206.27;1815077;79;21288;-79
2020/12/09 04:59:51;;;;;;;21.73;15.58;;;;;;;-2.98;77.84;101210.69;1783063;80;21287;-79
2020/12/09 05:02:59;;;;;;;15.98;8.68;;;;;;;-3.04;77.78;101196.25;1783086;80;21728;-79
2020/12/09 05:06:05;;;;;;;20.02;11.83;;;;;;;-3.10;77.82;101199.20;1781612;80;21176;-79
2020/12/09 05:09:11;;;;;;;17.55;7.70;;;;;;;-3.11;77.70;101204.13;1813642;79;21266;-79
2020/12/09 05:12:22;;;;;;;19.23;8.70;;;;;;;-3.12;77.49;101207.75;1812172;79;21353;-79
2020/12/09 05:15:30;;;;;;;23.35;8.78;;;;;;;-3.10;77.20;101206.77;1813856;79;21274;-80
2020/12/09 05:18:44;;;;;;;19.52;10.98;;;;;;;-3.15;76.88;101215.94;1822706;77;21125;-80
2020/12/09 05:21:50;;;;;;;17.30;9.35;;;;;;;-3.19;76.78;101203.63;1814226;79;21272;-79
2020/12/09 05:24:57;;;;;;;22.40;11.88;;;;;;;-3.25;76.82;101215.44;1833061;77;21632;-80
2020/12/09 05:28:02;;;;;;;24.10;16.15;;;;;;;-3.30;76.98;101211.23;1818756;77;21259;-80
2020/12/09 05:31:08;;;;;;;21.95;13.40;;;;;;;-3.36;77.09;101213.70;1802025;77;21537;-79
2020/12/09 05:34:34;;;;;;;18.02;9.13;;;;;;;-3.39;77.30;101216.06;1809792;77;21322;-80
2020/12/09 05:37:40;;;;;;;21.68;12.53;;;;;;;-3.41;77.49;101221.06;1809633;77;21819;-80
2020/12/09 05:40:48;;;;;;;19.35;10.13;;;;;;;-3.39;77.53;101225.86;1811716;77;21746;-80
2020/12/09 05:43:53;;;;;;;28.07;18.82;;;;;;;-3.43;77.15;101225.62;1813964;78;21305;-80
2020/12/09 05:47:10;;;;;;;24.05;13.60;;;;;;;-3.48;76.92;101226.25;1801306;77;21261;-81
2020/12/09 05:50:21;;;;;;;26.23;14.93;;;;;;;-3.53;77.15;101226.91;1806974;77;21154;-80
2020/12/09 05:53:38;;;;;;;15.43;7.85;;;;;;;-3.54;77.15;101223.37;1818477;77;21492;-80
2020/12/09 05:56:56;;;;;;;19.27;12.33;;;;;;;-3.56;77.03;101221.25;1825273;77;21209;-80
2020/12/09 06:00:24;;;;;;;15.80;9.13;;;;;;;-3.56;76.82;101229.27;1829199;76;23655;-80
2020/12/09 06:03:36;;;;;;;31.65;22.55;;;;;;;-3.63;76.69;101229.11;1792246;77;21970;-80
2020/12/09 06:06:43;;;;;;;27.25;18.62;;;;;;;-3.71;76.75;101228.58;1799647;77;21740;-81
2020/12/09 06:09:50;;;;;;;19.12;8.30;;;;;;;-3.72;76.96;101233.50;1743979;80;21394;-79
2020/12/09 06:13:00;;;;;;;28.15;18.25;;;;;;;-3.71;76.89;101229.45;1794494;78;21894;-79
2020/12/09 06:16:07;;;;;;;27.15;16.80;;;;;;;-3.73;76.81;101238.45;1796519;77;21699;-79
2020/12/09 06:19:14;;;;;;;30.55;22.55;;;;;;;-3.75;76.97;101229.63;1809097;77;21307;-79
2020/12/09 06:22:29;;;;;;;26.93;17.37;;;;;;;-3.70;76.94;101228.97;1845947;76;23214;-80
2020/12/09 06:25:36;;;;;;;23.67;16.57;;;;;;;-3.72;76.88;101238.38;1734376;80;21183;-81
2020/12/09 06:28:57;;;;;;;17.45;10.30;;;;;;;-3.71;76.94;101236.59;1752526;80;21252;-81
2020/12/09 06:32:10;;;;;;;26.90;13.18;;;;;;;-3.66;76.88;101225.24;1777509;79;22554;-80
2020/12/09 06:35:16;;;;;;;24.70;12.10;;;;;;;-3.65;76.79;101236.34;1781828;78;21172;-80
2020/12/09 06:38:27;;;;;;;27.93;19.07;;;;;;;-3.63;76.69;101239.33;1762746;78;21192;-79
2020/12/09 06:41:33;;;;;;;24.00;15.80;;;;;;;-3.58;76.65;101251.17;1758924;80;21169;-80
2020/12/09 06:44:56;;;;;;;29.98;14.30;;;;;;;-3.56;76.66;101243.98;1732022;82;21161;-80
2020/12/09 06:48:24;;;;;;;28.57;19.65;;;;;;;-3.54;76.47;101249.25;1741515;80;21491;-81
2020/12/09 06:51:46;;;;;;;15.63;11.35;;;;;;;-3.52;76.34;101250.95;1734849;81;21323;-81
2020/12/09 06:54:53;;;;;;;;;;;;;;;-3.55;76.37;101260.42;1734064;81;21323;-79
2020/12/09 06:58:01;;;;;;;25.35;16.70;;;;;;;-3.57;76.50;101246.26;1737437;81;20294;-80
2020/12/09 07:01:35;;;;;;;36.23;21.95;;;;;;;-3.59;76.62;101245.44;1730251;81;21243;-81
2020/12/09 07:05:11;;;;;;;22.60;15.08;;;;;;;-3.59;76.84;101248.11;1733427;81;21177;-80
2020/12/09 07:08:26;;;;;;;24.63;15.78;;;;;;;-3.57;76.97;101237.37;1739232;81;21232;-79
2020/12/09 07:11:48;;;;;;;35.28;19.77;;;;;;;-3.54;76.89;101239.42;1742037;81;21306;-79
2020/12/09 07:15:01;;;;;;;30.08;14.47;;;;;;;-3.55;76.96;101240.36;1736671;81;21342;-79
2020/12/09 07:18:14;;;;;;;27.15;19.17;;;;;;;-3.48;77.10;101248.55;1699352;81;21197;-81
2020/12/09 07:21:49;;;;;;;16.50;8.13;;;;;;;-3.43;76.97;101250.56;1726738;81;21236;-81
2020/12/09 07:25:08;;;;;;;30.57;21.23;;;;;;;-3.39;76.88;101248.16;1768123;79;21600;-80
2020/12/09 07:28:34;;;;;;;23.83;12.43;;;;;;;-3.35;76.89;101244.39;1771419;79;21307;-79
2020/12/09 07:31:47;;;;;;;21.25;9.88;;;;;;;-3.29;76.77;101250.42;1736777;80;21204;-80
2020/12/09 07:35:13;;;;;;;22.32;12.15;;;;;;;-3.23;76.80;101245.70;1848218;76;22207;-79
2020/12/09 07:38:21;;;;;;;18.98;8.05;;;;;;;-3.21;76.79;101236.25;1753238;79;21752;-80
2020/12/09 07:41:28;;;;;;;17.02;10.38;;;;;;;-3.15;76.74;101240.89;1799030;79;21310;-79
2020/12/09 07:44:37;;;;;;;18.45;8.18;;;;;;;-3.11;76.71;101251.84;1795020;78;21204;-79
2020/12/09 07:47:47;;;;;;;14.70;8.15;;;;;;;-3.09;76.64;101265.18;1801762;78;21313;-80
2020/12/09 07:50:59;;;;;;;;;;;;;;;-3.04;76.64;101246.24;1775152;78;21525;-80
2020/12/09 07:54:03;;;;;;;19.05;10.15;;;;;;;-2.98;76.45;101250.84;1799632;78;21250;-79
2020/12/09 07:57:15;;;;;;;15.08;10.25;;;;;;;-2.95;76.36;101252.53;1799355;79;21184;-80
2020/12/09 08:00:25;;;;;;;27.90;18.62;;;;;;;-2.89;76.26;101235.72;1795867;79;22464;-80
2020/12/09 08:03:33;;;;;;;15.85;10.23;;;;;;;-2.84;76.24;101253.78;1797326;78;21192;-79
2020/12/09 08:06:40;;;;;;;30.40;22.20;;;;;;;-2.85;76.31;101258.75;1799547;78;21318;-79
2020/12/09 08:09:46;;;;;;;21.82;12.13;;;;;;;-2.81;76.51;101246.09;1798403;78;21251;-80
2020/12/09 08:13:00;;;;;;;16.85;9.63;;;;;;;-2.75;76.49;101252.51;1793936;78;21318;-79
2020/12/09 08:16:14;;;;;;;17.25;8.33;;;;;;;-2.68;76.45;101253.09;1799712;78;21306;-80
2020/12/09 08:19:20;;;;;;;24.37;12.07;;;;;;;-2.60;76.15;101254.97;1800286;79;21298;-79
2020/12/09 08:22:24;;;;;;;46.00;36.35;;;;;;;-2.55;75.59;101249.39;1796958;78;21478;-78
2020/12/09 08:25:36;;;;;;;;;;;;;;;-2.54;75.50;101237.30;1799113;78;21286;-80
2020/12/09 08:28:58;;;;;;;22.65;15.03;;;;;;;-2.55;75.65;101240.89;1803563;79;20313;-80
2020/12/09 08:32:12;;;;;;;20.45;10.30;;;;;;;-2.53;75.83;101246.20;1795863;78;21244;-79
2020/12/09 08:35:23;;;;;;;42.50;31.20;;;;;;;-2.51;75.83;101234.45;1752730;79;21343;-80
2020/12/09 08:38:38;;;;;;;30.57;23.60;;;;;;;-2.44;75.56;101239.08;1764015;79;21834;-81
2020/12/09 08:41:48;;;;;;;21.70;13.90;;;;;;;-2.43;75.41;101248.38;1739339;79;21626;-79
2020/12/09 08:44:55;;;;;;;32.23;20.27;;;;;;;-2.38;75.57;101236.97;1764584;79;21295;-78
2020/12/09 08:48:06;;;;;;;27.48;16.25;;;;;;;-2.29;75.38;101233.47;1770522;79;21810;-80
2020/12/09 08:51:26;;;;;;;18.55;11.60;;;;;;;-2.27;75.00;101221.72;1769676;80;21864;-79
2020/12/09 08:54:34;;;;;;;24.12;13.70;;;;;;;-2.17;75.02;101227.52;1765590;79;22365;-80
2020/12/09 08:57:41;;;;;;;36.63;24.23;;;;;;;-2.11;74.74;101229.45;1770866;79;21381;-79
2020/12/09 09:01:05;;;;;;;19.82;9.78;;;;;;;-2.07;74.69;101218.08;1769355;79;21534;-80
2020/12/09 09:04:16;;;;;;;33.00;19.57;;;;;;;-2.03;74.81;101223.70;1763841;79;21574;-79
2020/12/09 09:07:22;;;;;;;16.30;8.53;;;;;;;-1.93;74.65;101236.19;1770561;79;21166;-79
2020/12/09 09:10:38;;;;;;;22.48;13.43;;;;;;;-1.90;74.61;101232.89;1770733;79;21286;-80
2020/12/09 09:13:48;;;;;;;22.87;10.58;;;;;;;-1.82;74.26;101237.42;1766515;79;21333;-80
2020/12/09 09:16:53;;;;;;;17.55;8.53;;;;;;;-1.82;74.16;101219.98;1765632;79;21324;-80
2020/12/09 09:20:00;;;;;;;50.52;40.40;;;;;;;-1.78;73.89;101223.40;1763836;79;21334;-80
2020/12/09 09:23:07;;;;;;;17.82;10.30;;;;;;;-1.74;73.58;101216.05;1736919;80;21609;-79
2020/12/09 09:26:17;;;;;;;34.85;20.92;;;;;;;-1.71;73.56;101236.89;1761538;79;21793;-80
2020/12/09 09:29:24;;;;;;;14.75;9.80;;;;;;;-1.65;73.50;101224.98;1765385;79;21314;-80
2020/12/09 09:33:04;;;;;;;53.58;41.40;;;;;;;-1.62;73.40;101214.11;1768506;79;21177;-81
2020/12/09 09:36:24;;;;;;;37.13;26.82;;;;;;;-1.55;73.36;101220.92;1786393;79;22062;-80
2020/12/09 09:39:52;;;;;;;37.93;26.95;;;;;;;-1.45;73.22;101214.14;1791535;78;21228;-80
2020/12/09 09:43:10;;;;;;;35.38;25.30;;;;;;;-1.38;73.11;101218.23;1764532;79;21196;-80
2020/12/09 09:46:45;;;;;;;21.90;13.30;;;;;;;-1.28;73.18;101207.89;1790440;78;21428;-80
2020/12/09 09:50:26;;;;;;;;;;;;;;;;;;;;;
2020/12/09 09:53:53;;;;;;;19.80;7.62;;;;;;;-1.12;72.19;101214.70;1797849;78;22213;-80
2020/12/09 09:57:13;;;;;;;13.88;7.50;;;;;;;-1.06;71.86;101213.89;1789645;78;21356;-80
2020/12/09 10:00:42;;;;;;;21.97;11.53;;;;;;;-0.98;71.61;101215.33;1795544;79;21306;-80
2020/12/09 10:04:12;;;;;;;17.65;11.68;;;;;;;-0.89;71.70;101210.34;1797551;79;21157;-80
2020/12/09 10:07:38;;;;;;;18.48;9.00;;;;;;;-0.78;71.38;101206.59;1781843;78;21219;-80
2020/12/09 10:10:59;;;;;;;10.82;7.05;;;;;;;-0.69;71.16;101192.28;1768999;79;21959;-79
2020/12/09 10:14:26;;;;;;;15.43;7.90;;;;;;;-0.62;71.08;101191.84;1791233;78;21212;-80
2020/12/09 10:18:24;;;;;;;18.30;9.25;;;;;;;-0.56;70.68;101187.98;1781607;78;21149;-79
2020/12/09 10:22:13;;;;;;;;;;;;;;;;;;;;;
2020/12/09 10:25:41;;;;;;;15.93;8.28;;;;;;;-0.42;70.53;101184.53;1790413;79;21072;-79
2020/12/09 10:28:54;;;;;;;19.77;13.05;;;;;;;-0.38;70.44;101162.74;1790228;78;21306;-80
2020/12/09 10:32:10;;;;;;;26.02;15.10;;;;;;;-0.35;70.58;101173.81;1789567;78;21199;-79
2020/12/09 10:35:23;;;;;;;26.50;18.20;;;;;;;-0.33;70.63;101164.73;1766383;78;21215;-80
2020/12/09 10:38:51;;;;;;;;;;;;;;;;;;;;;
2020/12/09 10:42:47;;;;;;;29.12;20.37;;;;;;;-0.23;70.60;101157.48;1743639;79;21176;-80
2020/12/09 10:46:09;;;;;;;23.35;14.90;;;;;;;-0.16;70.40;101147.62;1796577;79;21313;-80
2020/12/09 10:49:47;;;;;;;22.25;16.05;;;;;;;-0.08;70.47;101152.58;1791552;79;21866;-80
2020/12/09 10:52:52;;;;;;;15.10;10.32;;;;;;;0.01;70.26;101155.22;1791345;79;21192;-79
2020/12/09 10:55:59;;;;;;;25.97;17.75;;;;;;;0.09;70.13;101143.03;1790021;79;21392;-79
2020/12/09 10:59:07;;;;;;;18.00;11.05;;;;;;;0.17;70.02;101150.19;1790421;79;22254;-79
2020/12/09 11:02:21;;;;;;;17.55;12.63;;;;;;;0.21;69.93;101139.64;1765692;79;21423;-79
2020/12/09 11:05:31;;;;;;;28.75;17.95;;;;;;;0.23;69.88;101143.09;1791657;79;21298;-78
2020/12/09 11:08:38;;;;;;;24.20;18.20;;;;;;;0.22;69.83;101135.98;1753157;81;21338;-79
2020/12/09 11:11:47;;;;;;;20.02;16.02;;;;;;;0.23;70.03;101140.88;1736794;81;21210;-78
2020/12/09 11:14:58;;;;;;;14.90;11.25;;;;;;;0.30;70.21;101136.03;1724626;81;21903;-80
2020/12/09 11:18:09;;;;;;;19.10;13.35;;;;;;;0.44;69.89;101128.86;1705023;81;21200;-80
2020/12/09 11:21:17;;;;;;;20.70;14.33;;;;;;;0.61;69.49;101145.36;1727341;81;21411;-80
2020/12/09 11:24:32;;;;;;;14.07;6.22;;;;;;;0.74;69.20;101132.86;1726902;81;21222;-80
2020/12/09 11:27:41;;;;;;;11.73;6.08;;;;;;;0.85;68.41;101134.92;1752201;81;21215;-79
2020/12/09 11:30:47;;;;;;;12.53;6.25;;;;;;;0.87;67.77;101129.44;1727996;81;21321;-80
2020/12/09 11:33:56;;;;;;;21.20;7.97;;;;;;;0.83;67.68;101135.97;1758141;81;21271;-79
2020/12/09 11:37:07;;;;;;;16.70;8.93;;;;;;;0.79;67.71;101140.66;1749464;80;21328;-79
2020/12/09 11:40:25;;;;;;;13.40;7.70;;;;;;;0.75;67.87;101132.37;1748287;81;22128;-78
2020/12/09 11:44:03;;;;;;;15.43;8.05;;;;;;;0.74;67.77;101132.86;1688651;84;21244;-80
2020/12/09 11:47:18;;;;;;;13.72;8.63;;;;;;;0.70;67.88;101141.22;1714781;82;21945;-81
2020/12/09 11:50:50;;;;;;;19.52;12.65;;;;;;;0.66;68.02;101128.90;1726480;82;21769;-79
2020/12/09 11:54:38;;;;;;;22.20;13.78;;;;;;;0.66;68.30;101119.02;1690374;82;21724;-79
2020/12/09 11:57:53;;;;;;;15.00;7.30;;;;;;;0.70;68.45;101131.31;1728826;81;21149;-80
2020/12/09 12:01:06;;;;;;;16.55;5.95;;;;;;;0.75;68.52;101129.23;1721319;82;21923;-79
2020/12/09 12:04:28;;;;;;;22.45;12.23;;;;;;;0.82;68.17;101118.94;1753446;81;21311;-79
2020/12/09 12:07:36;;;;;;;14.30;8.85;;;;;;;0.88;67.92;101119.90;1750975;81;21275;-79
2020/12/09 12:10:42;;;;;;;;;;;;;;;0.89;67.90;101112.69;1727672;82;21303;-79
2020/12/09 12:13:50;;;;;;;21.17;17.05;;;;;;;0.88;67.94;101110.95;1751153;81;20290;-81
2020/12/09 12:17:00;;;;;;;20.12;15.48;;;;;;;0.88;68.07;101123.08;1750846;81;22229;-81
2020/12/09 12:20:07;;;;;;;12.85;8.80;;;;;;;0.85;68.10;101118.77;1727883;81;21185;-81
2020/12/09 12:23:13;;;;;;;14.63;7.08;;;;;;;0.85;68.21;101118.77;1710063;83;21398;-79
2020/12/09 12:26:29;;;;;;;27.58;12.88;;;;;;;0.88;68.13;101127.12;1709015;83;21935;-79
2020/12/09 12:29:35;;;;;;;17.07;12.30;;;;;;;0.90;67.96;101130.60;1702924;83;21205;-79
2020/12/09 12:32:40;;;;;;;16.17;11.48;;;;;;;0.91;67.63;101128.29;1724634;82;21385;-79
2020/12/09 12:35:46;;;;;;;17.37;8.60;;;;;;;0.88;67.34;101137.41;1726035;82;21326;-79
2020/12/09 12:38:54;;;;;;;12.05;8.58;;;;;;;0.86;67.38;101132.61;1729328;82;21311;-79
2020/12/09 12:42:03;;;;;;;15.83;7.83;;;;;;;0.84;67.48;101139.03;1729635;82;21386;-79
2020/12/09 12:45:22;;;;;;;11.38;6.35;;;;;;;0.82;67.45;101132.89;1727225;82;21336;-79
2020/12/09 12:48:28;;;;;;;12.93;6.60;;;;;;;0.79;67.43;101137.11;1727718;82;21177;-80
2020/12/09 12:51:33;;;;;;;14.95;8.18;;;;;;;0.73;67.18;101136.52;1783956;79;21342;-79
2020/12/09 12:54:45;;;;;;;18.60;11.70;;;;;;;0.68;67.22;101145.84;1784105;79;21330;-78
2020/12/09 12:57:55;;;;;;;15.40;9.35;;;;;;;0.66;67.12;101148.64;1775238;79;21799;-79
2020/12/09 13:01:01;;;;;;;14.45;7.70;;;;;;;0.64;67.05;101145.16;1779649;79;21351;-79
2020/12/09 13:04:24;;;;;;;13.75;6.85;;;;;;;0.60;66.94;101139.56;1778017;79;21275;-78
2020/12/09 13:07:32;;;;;;;13.03;6.35;;;;;;;0.57;66.88;101142.95;1780814;79;21315;-78
2020/12/09 13:10:37;;;;;;;21.20;8.20;;;;;;;0.55;66.96;101151.09;1789958;79;21283;-79
2020/12/09 13:13:49;;;;;;;13.43;8.08;;;;;;;0.54;66.76;101153.41;1787755;79;21299;-80
2020/12/09 13:16:58;;;;;;;10.70;6.15;;;;;;;0.56;66.36;101154.17;1777193;79;21327;-79
2020/12/09 13:20:03;;;;;;;12.95;7.53;;;;;;;0.56;66.29;101152.82;1778700;79;21295;-79
2020/12/09 13:23:09;;;;;;;14.28;6.08;;;;;;;0.56;66.15;101147.92;1785351;79;21437;-80
2020/12/09 13:26:16;;;;;;;27.42;14.45;;;;;;;0.57;66.12;101137.56;1777235;79;21240;-80
2020/12/09 13:29:22;;;;;;;19.85;13.18;;;;;;;0.52;65.67;101152.64;1775627;79;21288;-79
2020/12/09 13:32:28;;;;;;;15.78;7.85;;;;;;;0.44;65.24;101149.05;1780497;79;21316;-79
2020/12/09 13:35:33;;;;;;;13.78;8.38;;;;;;;0.39;65.17;101154.33;1787012;79;21291;-79
2020/12/09 13:38:39;;;;;;;27.87;20.85;;;;;;;0.33;64.93;101155.56;1785009;79;21972;-79
2020/12/09 13:41:44;;;;;;;14.07;7.65;;;;;;;0.27;64.98;101163.11;1788182;79;21315;-79
2020/12/09 13:44:50;;;;;;;33.45;26.37;;;;;;;0.18;64.97;101152.40;1789768;79;21282;-79
2020/12/09 13:47:57;;;;;;;15.30;6.55;;;;;;;0.10;65.19;101154.69;1778129;79;21280;-79
2020/12/09 13:51:03;;;;;;;15.95;9.80;;;;;;;0.03;65.21;101158.67;1790137;79;21216;-79
2020/12/09 13:54:10;;;;;;;22.22;10.10;;;;;;;-0.05;64.75;101154.62;1786615;79;21318;-80
2020/12/09 13:57:16;;;;;;;22.42;16.55;;;;;;;-0.07;64.34;101154.30;1784081;79;21650;-78
2020/12/09 14:00:24;;;;;;;16.42;10.95;;;;;;;-0.13;64.03;101158.70;1789637;79;21648;-79
2020/12/09 14:03:30;;;;;;;18.65;13.05;;;;;;;-0.18;63.91;101148.20;1775659;79;21295;-79
2020/12/09 14:06:39;;;;;;;29.32;18.25;;;;;;;-0.21;63.98;101160.95;1781817;79;21889;-79
2020/12/09 14:09:49;;;;;;;16.32;10.60;;;;;;;-0.29;64.10;101151.95;1788525;79;21342;-79
2020/12/09 14:12:56;;;;;;;23.30;17.05;;;;;;;-0.34;64.38;101148.18;1783698;79;21594;-78
2020/12/09 14:16:03;;;;;;;21.50;15.58;;;;;;;-0.40;64.50;101153.91;1793038;79;21370;-78
2020/12/09 14:22:18;;;;;;;12.25;5.92;;;;;;;-0.45;64.07;101149.75;1789876;79;21882;-79
2020/12/09 14:25:25;;;;;;;12.58;8.38;;;;;;;-0.47;64.05;101147.61;1794219;79;21834;-79
2020/12/09 14:28:31;;;;;;;17.37;5.85;;;;;;;-0.54;64.02;101152.47;1794052;79;21759;-79
2020/12/09 14:31:38;;;;;;;15.32;7.15;;;;;;;-0.58;64.07;101151.77;1789767;79;21295;-79
2020/12/09 14:34:50;;;;;;;13.05;5.92;;;;;;;-0.64;64.11;101164.20;1775246;79;21291;-78
2020/12/09 14:37:59;;;;;;;15.43;6.08;;;;;;;-0.69;63.84;101156.00;1772609;79;21319;-78
2020/12/09 14:41:04;;;;;;;14.63;6.72;;;;;;;-0.72;63.40;101160.19;1792977;79;21797;-78
2020/12/09 14:44:11;;;;;;;14.68;4.90;;;;;;;-0.78;62.93;101165.42;1794557;79;21362;-79